createdAt,value
2023-08-07T00:00:57.589Z,11.5
2023-08-07T00:02:54.715Z,11.5
2023-08-07T00:04:51.852Z,11.6
2023-08-07T00:06:48.974Z,11.6
2023-08-07T00:08:45.960Z,11.6
2023-08-07T00:10:43.002Z,11.6
2023-08-07T00:12:40.211Z,11.6
2023-08-07T00:14:37.673Z,11.6
2023-08-07T00:16:35.116Z,11.6
2023-08-07T00:18:32.209Z,11.6
2023-08-07T00:20:29.275Z,11.6
2023-08-07T00:22:26.710Z,11.6
2023-08-07T00:24:23.906Z,11.6
2023-08-07T00:26:21.096Z,11.6
2023-08-07T00:28:18.190Z,11.6
2023-08-07T00:30:15.347Z,11.6
2023-08-07T00:32:12.894Z,11.6
2023-08-07T00:34:10.094Z,11.6
2023-08-07T00:36:07.217Z,11.6
2023-08-07T00:38:04.335Z,11.6
2023-08-07T00:40:01.454Z,11.6
2023-08-07T00:41:58.484Z,11.6
2023-08-07T00:43:55.522Z,11.5
2023-08-07T00:45:52.659Z,11.5
2023-08-07T00:47:49.675Z,11.5
2023-08-07T00:49:47.004Z,11.6
2023-08-07T00:51:44.130Z,11.5
2023-08-07T00:53:41.301Z,11.5
2023-08-07T00:55:38.267Z,11.5
2023-08-07T00:57:35.286Z,11.5
2023-08-07T00:59:32.479Z,11.5
2023-08-07T01:01:29.894Z,11.5
2023-08-07T01:03:27.360Z,11.5
2023-08-07T01:05:24.586Z,11.5
2023-08-07T01:07:22.128Z,11.5
2023-08-07T01:09:19.289Z,11.5
2023-08-07T01:11:16.387Z,11.5
2023-08-07T01:13:13.424Z,11.5
2023-08-07T01:15:10.516Z,11.5
2023-08-07T01:17:07.758Z,11.5
2023-08-07T01:19:05.067Z,11.5
2023-08-07T01:21:02.112Z,11.5
2023-08-07T01:22:59.297Z,11.5
2023-08-07T01:24:56.439Z,11.5
2023-08-07T01:26:54.128Z,11.5
2023-08-07T01:28:51.868Z,11.5
2023-08-07T01:30:49.109Z,11.5
2023-08-07T01:32:46.287Z,11.5
2023-08-07T01:34:43.721Z,11.5
2023-08-07T01:36:40.923Z,11.5
2023-08-07T01:38:37.938Z,11.5
2023-08-07T01:40:35.164Z,11.5
2023-08-07T01:42:32.357Z,11.5
2023-08-07T01:44:29.378Z,11.5
2023-08-07T01:46:26.475Z,11.5
2023-08-07T01:48:25.973Z,11.4
2023-08-07T01:50:24.265Z,11.4
2023-08-07T01:52:21.411Z,11.4
2023-08-07T01:54:18.639Z,11.4
2023-08-07T01:56:15.763Z,11.4
2023-08-07T01:58:12.870Z,11.4
2023-08-07T02:00:09.846Z,11.4
2023-08-07T02:02:07.010Z,11.4
2023-08-07T02:04:04.150Z,11.4
2023-08-07T02:06:01.366Z,11.4
2023-08-07T02:07:58.479Z,11.4
2023-08-07T02:09:55.655Z,11.4
2023-08-07T02:11:52.778Z,11.4
2023-08-07T02:13:49.979Z,11.4
2023-08-07T02:15:46.991Z,11.4
2023-08-07T02:17:44.025Z,11.4
2023-08-07T02:19:41.051Z,11.4
2023-08-07T02:21:38.197Z,11.4
2023-08-07T02:23:35.396Z,11.4
2023-08-07T02:25:32.515Z,11.3
2023-08-07T02:27:29.635Z,11.4
2023-08-07T02:29:26.738Z,11.3
2023-08-07T02:31:23.939Z,11.4
2023-08-07T02:33:21.332Z,11.3
2023-08-07T02:35:18.532Z,11.3
2023-08-07T02:37:15.470Z,11.3
2023-08-07T02:39:12.569Z,11.3
2023-08-07T02:41:09.687Z,11.3
2023-08-07T02:43:06.965Z,11.3
2023-08-07T02:45:04.002Z,11.3
2023-08-07T02:47:01.000Z,11.3
2023-08-07T02:48:57.943Z,11.3
2023-08-07T02:50:54.926Z,11.3
2023-08-07T02:52:51.931Z,11.3
2023-08-07T02:54:49.091Z,11.3
2023-08-07T02:56:46.242Z,11.3
2023-08-07T02:58:43.261Z,11.3
2023-08-07T03:00:40.199Z,11.3
2023-08-07T03:02:37.416Z,11.3
2023-08-07T03:04:34.753Z,11.3
2023-08-07T03:06:31.788Z,11.3
2023-08-07T03:08:28.984Z,11.3
2023-08-07T03:10:26.908Z,11.3
2023-08-07T03:12:24.277Z,11.3
2023-08-07T03:14:21.312Z,11.3
2023-08-07T03:16:18.266Z,11.3
2023-08-07T03:18:15.536Z,11.3
2023-08-07T03:20:12.694Z,11.3
2023-08-07T03:22:09.785Z,11.3
2023-08-07T03:24:06.807Z,11.3
2023-08-07T03:26:16.684Z,11.3
2023-08-07T03:28:16.909Z,11.3
2023-08-07T03:30:14.814Z,11.3
2023-08-07T03:32:12.002Z,11.3
2023-08-07T03:34:09.089Z,11.3
2023-08-07T03:36:06.042Z,11.3
2023-08-07T03:38:03.081Z,11.3
2023-08-07T03:40:00.238Z,11.3
2023-08-07T03:41:57.472Z,11.3
2023-08-07T03:43:54.548Z,11.3
2023-08-07T03:45:51.824Z,11.3
2023-08-07T03:47:49.075Z,11.3
2023-08-07T03:49:46.423Z,11.3
2023-08-07T03:51:43.609Z,11.3
2023-08-07T03:53:40.668Z,11.3
2023-08-07T03:55:37.899Z,11.3
2023-08-07T03:57:35.051Z,11.2
2023-08-07T03:59:32.155Z,11.3
2023-08-07T04:01:29.501Z,11.2
2023-08-07T04:03:26.651Z,11.2
2023-08-07T04:05:23.786Z,11.3
2023-08-07T04:07:20.885Z,11.3
2023-08-07T04:09:17.975Z,11.3
2023-08-07T04:11:15.036Z,11.3
2023-08-07T04:13:12.216Z,11.3
2023-08-07T04:15:09.250Z,11.3
2023-08-07T04:17:06.306Z,11.3
2023-08-07T04:19:03.346Z,11.2
2023-08-07T04:21:00.339Z,11.2
2023-08-07T04:22:57.467Z,11.3
2023-08-07T04:24:54.606Z,11.3
2023-08-07T04:26:51.653Z,11.3
2023-08-07T04:28:48.685Z,11.3
2023-08-07T04:30:45.784Z,11.3
2023-08-07T04:32:43.080Z,11.3
2023-08-07T04:34:40.316Z,11.3
2023-08-07T04:36:37.407Z,11.3
2023-08-07T13:12:13.195Z,26.5
2023-08-07T13:17:45.184Z,26.2
2023-08-07T16:58:23.612Z,23.8
2023-08-07T17:00:21.285Z,23.7
2023-08-07T17:02:18.843Z,23.7
2023-08-07T17:04:16.262Z,23.7
2023-08-07T17:06:13.384Z,23.5
2023-08-07T17:08:10.638Z,23
2023-08-07T17:10:08.142Z,22.5
2023-08-07T17:12:05.461Z,22.3
2023-08-07T17:14:02.881Z,22.2
2023-08-07T17:16:00.219Z,21.9
2023-08-07T17:17:57.636Z,21.4
2023-08-07T17:19:55.104Z,21
2023-08-07T17:21:52.303Z,20.5
2023-08-07T17:23:49.652Z,20.1
2023-08-07T17:25:46.946Z,19.6
2023-08-07T17:27:44.304Z,19.2
2023-08-07T17:29:41.534Z,18.9
2023-08-07T17:31:38.804Z,18.5
2023-08-07T17:33:36.050Z,18.2
2023-08-07T17:35:33.152Z,18
2023-08-07T17:37:30.288Z,17.9
2023-08-07T17:39:30.477Z,18
2023-08-07T17:41:27.697Z,18.4
2023-08-07T17:43:24.844Z,19.2
2023-08-07T17:45:22.319Z,20
2023-08-07T17:47:19.502Z,20.5
2023-08-07T17:49:16.494Z,21.1
2023-08-07T17:51:15.227Z,21.4
2023-08-07T17:53:12.132Z,21.5
2023-08-07T17:55:09.293Z,21.5
2023-08-07T17:57:06.411Z,21.5
2023-08-07T17:59:03.361Z,21.5
2023-08-07T18:01:00.427Z,21.5
2023-08-07T18:02:57.782Z,21.5
2023-08-07T18:04:55.024Z,21.3
2023-08-07T18:06:52.241Z,21.1
2023-08-07T18:08:49.190Z,20.9
2023-08-07T18:10:46.395Z,20.6
2023-08-07T18:12:43.584Z,20.5
2023-08-07T18:14:40.744Z,20.3
2023-08-07T18:16:37.914Z,20.3
2023-08-07T18:18:35.103Z,20.2
2023-08-07T18:20:32.010Z,20.1
2023-08-07T18:22:29.115Z,20
2023-08-07T18:24:26.145Z,19.7
2023-08-07T18:26:23.095Z,19.5
2023-08-07T18:28:20.387Z,19.3
2023-08-07T18:30:17.693Z,19
2023-08-07T18:32:14.849Z,18.7
2023-08-07T18:34:12.088Z,18.3
2023-08-07T18:36:09.182Z,17.8
2023-08-07T18:38:06.282Z,17.2
2023-08-07T18:40:03.261Z,16.8
2023-08-07T18:42:00.312Z,16.4
2023-08-07T18:43:57.296Z,16.1
2023-08-07T18:45:54.304Z,15.9
2023-08-07T18:47:51.444Z,15.6
2023-08-07T18:49:48.697Z,15.5
2023-08-07T18:51:46.956Z,15.2
2023-08-07T18:53:45.132Z,15
2023-08-07T18:55:42.309Z,14.9
2023-08-07T18:57:39.334Z,14.7
2023-08-07T18:59:36.432Z,14.6
2023-08-07T19:01:33.626Z,14.5
2023-08-07T19:03:31.241Z,14.4
2023-08-07T19:05:28.553Z,14.3
2023-08-07T19:07:25.974Z,14.2
2023-08-07T19:09:23.200Z,14.1
2023-08-07T19:11:20.272Z,14.1
2023-08-07T19:13:17.260Z,14.1
2023-08-07T19:15:14.406Z,14.1
2023-08-07T19:17:11.506Z,14.1
2023-08-07T19:19:08.775Z,14.1
2023-08-07T19:21:05.920Z,14
2023-08-07T19:23:03.056Z,14
2023-08-07T19:25:00.033Z,13.9
2023-08-07T19:26:57.604Z,13.9
2023-08-07T19:28:55.609Z,13.9
2023-08-07T19:31:04.380Z,13.8
2023-08-07T19:33:03.921Z,13.7
2023-08-07T19:35:01.115Z,13.6
2023-08-07T19:36:58.701Z,13.6
2023-08-07T19:38:56.132Z,13.6
2023-08-07T19:40:53.181Z,13.6
2023-08-07T19:42:50.188Z,13.6
2023-08-07T19:44:47.314Z,13.6
2023-08-07T19:46:44.726Z,13.6
2023-08-07T19:48:41.814Z,13.6
2023-08-07T19:50:39.105Z,13.7
2023-08-07T19:52:36.124Z,13.6
2023-08-07T19:54:33.250Z,13.6
2023-08-07T19:56:32.726Z,13.6
2023-08-07T19:58:33.838Z,13.5
2023-08-07T20:00:30.889Z,13.5
2023-08-07T20:02:28.295Z,13.4
2023-08-07T20:04:27.232Z,13.3
2023-08-07T20:06:26.089Z,13.2
2023-08-07T20:08:23.519Z,13.1
2023-08-07T20:10:20.618Z,13
2023-08-07T20:12:17.772Z,12.9
2023-08-07T20:14:14.908Z,12.8
2023-08-07T20:16:11.881Z,12.7
2023-08-07T20:18:09.323Z,12.5
2023-08-07T20:20:06.555Z,12.5
2023-08-07T20:22:03.672Z,12.4
2023-08-07T20:24:00.789Z,12.3
2023-08-07T20:25:57.887Z,12.3
2023-08-07T20:27:54.927Z,12.2
2023-08-07T20:29:52.024Z,12.2
2023-08-07T20:31:49.375Z,12.2
2023-08-07T20:33:46.540Z,12.2
2023-08-07T20:35:43.720Z,12.2
2023-08-07T20:37:40.937Z,12.2
2023-08-07T20:39:38.121Z,12.1
2023-08-07T20:41:35.102Z,12.1
2023-08-07T20:43:32.145Z,12.1
2023-08-07T20:45:29.416Z,12.1
2023-08-07T20:47:26.665Z,12.2
2023-08-07T20:49:23.795Z,12.2
2023-08-07T20:51:20.990Z,12.2
2023-08-07T20:53:18.110Z,12.3
2023-08-07T20:55:15.181Z,12.3
2023-08-07T20:57:12.238Z,12.3
2023-08-07T20:59:09.421Z,12.3
2023-08-07T21:01:06.454Z,12.2
2023-08-07T21:03:03.685Z,12.2
2023-08-07T21:05:01.000Z,12.2
2023-08-07T21:06:58.312Z,12.2
2023-08-07T21:08:55.381Z,12.2
2023-08-07T21:10:52.402Z,12.2
2023-08-07T21:12:49.448Z,12.2
2023-08-07T21:14:46.402Z,12.2
2023-08-07T21:16:43.731Z,12.3
2023-08-07T21:18:41.138Z,12.3
2023-08-07T21:20:38.256Z,12.4
2023-08-07T21:22:35.334Z,12.5
2023-08-07T21:24:32.752Z,12.5
2023-08-07T21:26:29.932Z,12.5
2023-08-07T21:28:26.899Z,12.5
2023-08-07T21:30:24.065Z,12.5
2023-08-07T21:32:21.213Z,12.6
2023-08-07T21:34:18.245Z,12.7
2023-08-07T21:36:15.404Z,12.7
2023-08-07T21:38:12.522Z,12.8
2023-08-07T21:40:09.672Z,12.8
2023-08-07T21:42:06.714Z,12.8
2023-08-07T21:44:03.872Z,12.9
2023-08-07T21:46:00.910Z,12.9
2023-08-07T21:47:58.189Z,12.9
2023-08-07T21:49:55.445Z,13
2023-08-07T21:51:52.624Z,13
2023-08-07T21:53:49.827Z,13.1
2023-08-07T21:55:46.935Z,13.1
2023-08-07T21:57:44.110Z,13.1
2023-08-07T21:59:41.266Z,13.1
2023-08-07T22:01:38.569Z,13.1
2023-08-07T22:03:35.906Z,13.1
2023-08-07T22:05:33.258Z,13.1
2023-08-07T22:07:30.252Z,13.1
2023-08-07T22:09:27.451Z,13.1
2023-08-07T22:11:24.599Z,13.1
2023-08-07T22:13:21.691Z,13.1
2023-08-07T22:15:18.788Z,13.1
2023-08-07T22:17:15.930Z,13.2
2023-08-07T22:19:12.930Z,13.2
2023-08-07T22:21:09.833Z,13.2
2023-08-07T22:23:07.026Z,13.2
2023-08-07T22:25:04.178Z,13.1
2023-08-07T22:27:01.385Z,13.1
2023-08-07T22:28:58.457Z,13.1
2023-08-07T22:30:55.596Z,13.1
2023-08-07T22:32:52.817Z,13.1
2023-08-07T22:34:49.955Z,13.1
2023-08-07T22:36:47.138Z,13.1
2023-08-07T22:38:44.185Z,13.1
2023-08-07T22:40:41.385Z,13.1
2023-08-07T22:42:38.530Z,13.1
2023-08-07T22:44:35.624Z,13.1
2023-08-07T22:46:33.288Z,13
2023-08-07T22:48:30.336Z,13.1
2023-08-07T22:50:27.376Z,13
2023-08-07T22:52:24.876Z,13
2023-08-07T22:54:21.971Z,13
2023-08-07T22:56:19.111Z,13
2023-08-07T22:58:16.234Z,13
2023-08-07T23:00:13.341Z,13
2023-08-07T23:02:10.625Z,13
2023-08-07T23:04:08.009Z,13
2023-08-07T23:06:05.157Z,13
2023-08-07T23:08:02.297Z,13
2023-08-07T23:09:59.363Z,13
2023-08-07T23:11:56.607Z,13
2023-08-07T23:13:54.480Z,12.9
2023-08-07T23:15:51.557Z,12.9
2023-08-07T23:17:48.948Z,12.8
2023-08-07T23:19:46.249Z,12.8
2023-08-07T23:21:43.299Z,12.8
2023-08-07T23:23:40.440Z,12.8
2023-08-07T23:25:37.505Z,12.7
2023-08-07T23:27:34.632Z,12.7
2023-08-07T23:29:31.905Z,12.6
2023-08-07T23:31:29.232Z,12.5
2023-08-07T23:33:26.475Z,12.5
2023-08-07T23:35:23.586Z,12.5
2023-08-07T23:37:20.670Z,12.5
2023-08-07T23:39:17.722Z,12.5
2023-08-07T23:41:14.907Z,12.5
2023-08-07T23:43:12.060Z,12.5
2023-08-07T23:45:09.161Z,12.5
2023-08-07T23:47:06.500Z,12.5
2023-08-07T23:49:03.902Z,12.5
2023-08-07T23:51:01.002Z,12.5
2023-08-07T23:52:57.994Z,12.5
2023-08-07T23:54:55.084Z,12.5
2023-08-07T23:56:52.147Z,12.5
2023-08-07T23:58:49.121Z,12.5
